createdAt,value
2023-05-21T00:00:23.414Z,101367.73
2023-05-21T00:05:47.477Z,101360.61
2023-05-21T00:10:50.973Z,101353.54
2023-05-21T00:15:54.298Z,101352.30
2023-05-21T00:20:58.182Z,101355.46
2023-05-21T00:26:01.554Z,101366.13
2023-05-21T00:31:06.732Z,101373.23
2023-05-21T00:36:10.644Z,101376.06
2023-05-21T00:41:14.111Z,101371.45
2023-05-21T00:46:23.549Z,101372.95
2023-05-21T00:51:30.554Z,101372.86
2023-05-21T00:56:33.880Z,101370.77
2023-05-21T01:01:38.477Z,101370.27
2023-05-21T01:06:43.493Z,101368.16
2023-05-21T01:11:50.384Z,101363.98
2023-05-21T01:16:55.039Z,101358.73
2023-05-21T01:22:05.345Z,101351.92
2023-05-21T01:27:10.740Z,101346.59
2023-05-21T01:32:26.923Z,101345.50
2023-05-21T01:37:47.540Z,101348.27
2023-05-21T01:42:51.779Z,101346.23
2023-05-21T01:47:56.762Z,101350.06
2023-05-21T01:53:04.222Z,101352.85
2023-05-21T01:58:08.623Z,101352.79
2023-05-21T02:03:17.655Z,101354.27
2023-05-21T02:08:21.642Z,101344.90
2023-05-21T02:13:26.747Z,101342.51
2023-05-21T02:18:30.554Z,101342.21
2023-05-21T02:23:33.833Z,101338.54
2023-05-21T02:28:37.241Z,101343.77
2023-05-21T02:33:42.325Z,101343.59
2023-05-21T02:38:45.788Z,101349.34
2023-05-21T02:43:49.122Z,101352.66
2023-05-21T02:48:52.498Z,101350.94
2023-05-21T02:53:55.835Z,101344.27
2023-05-21T02:58:59.189Z,101338.23
2023-05-21T03:04:02.507Z,101340.32
2023-05-21T03:09:06.878Z,101345.49
2023-05-21T03:14:10.302Z,101347.08
2023-05-21T03:19:13.977Z,101343.44
2023-05-21T03:24:17.693Z,101343.71
2023-05-21T03:29:21.072Z,101340.34
2023-05-21T03:34:24.595Z,101339.16
2023-05-21T03:39:27.924Z,101331.88
2023-05-21T03:44:32.820Z,101326.69
2023-05-21T03:49:36.078Z,101321.73
2023-05-21T03:54:39.348Z,101320.29
2023-05-21T03:59:42.615Z,101314.45
2023-05-21T04:04:47.324Z,101319.96
2023-05-21T04:09:50.840Z,101322.81
2023-05-21T04:14:54.227Z,101325.16
2023-05-21T04:19:57.518Z,101331.17
2023-05-21T04:25:00.834Z,101329.74
2023-05-21T04:30:04.930Z,101329.14
2023-05-21T04:35:08.965Z,101330.05
2023-05-21T04:40:18.522Z,101321.38
2023-05-21T04:45:25.086Z,101314.56
2023-05-21T04:50:31.024Z,101313.20
2023-05-21T04:55:36.773Z,101310.61
2023-05-21T05:00:42.493Z,101305.55
2023-05-21T05:05:46.644Z,101307.47
2023-05-21T05:10:50.049Z,101309.63
2023-05-21T05:15:54.871Z,101313.61
2023-05-21T05:20:58.292Z,101311.91
2023-05-21T05:26:01.592Z,101312.02
2023-05-21T05:31:05.547Z,101309.02
2023-05-21T05:36:09.023Z,101312.23
2023-05-21T05:41:12.381Z,101309.49
2023-05-21T05:46:16.624Z,101307.58
2023-05-21T05:51:23.887Z,101305.50
2023-05-21T05:56:27.391Z,101299.90
2023-05-21T06:01:32.856Z,101294.32
2023-05-21T06:06:37.277Z,101292.59
2023-05-21T06:11:40.703Z,101294.75
2023-05-21T06:16:44.009Z,101292.06
2023-05-21T06:21:47.552Z,101287.71
2023-05-21T06:26:50.986Z,101285.20
2023-05-21T06:31:54.461Z,101284.30
2023-05-21T06:36:57.841Z,101287.48
2023-05-21T06:42:02.397Z,101283.91
2023-05-21T06:47:06.029Z,101286.23
2023-05-21T06:52:09.427Z,101282.12
2023-05-21T06:57:15.630Z,101278.84
2023-05-21T07:02:19.425Z,101277.11
2023-05-21T07:07:22.926Z,101270.30
2023-05-21T07:12:27.385Z,101267.41
2023-05-21T07:17:31.006Z,101265.63
2023-05-21T07:22:35.051Z,101269.79
2023-05-21T07:27:38.506Z,101274.33
2023-05-21T07:32:42.100Z,101279.38
2023-05-21T07:37:46.700Z,101276.85
2023-05-21T07:42:50.193Z,101273.59
2023-05-21T07:47:53.710Z,101273.66
2023-05-21T07:52:58.279Z,101273.51
2023-05-21T07:58:01.974Z,101271.70
2023-05-21T08:03:05.881Z,101266.29
2023-05-21T08:08:09.308Z,101260.38
2023-05-21T08:13:17.253Z,101255.77
2023-05-21T08:18:20.854Z,101248.40
2023-05-21T08:23:24.741Z,101241.45
2023-05-21T08:28:29.374Z,101233.27
2023-05-21T08:33:39.559Z,101229.45
2023-05-21T08:38:42.972Z,101227.49
2023-05-21T08:43:50.179Z,101225.17
2023-05-21T08:48:56.404Z,101224.52
2023-05-21T08:54:03.044Z,101221.76
2023-05-21T08:59:07.639Z,101214.70
2023-05-21T09:09:33.146Z,101212.66
2023-05-21T09:14:38.514Z,101214.41
2023-05-21T09:20:17.821Z,101209.20
2023-05-21T09:25:28.454Z,101213.77
2023-05-21T09:30:35.019Z,101207.73
2023-05-21T09:35:47.349Z,101196.46
2023-05-21T09:40:51.089Z,101188.46
2023-05-21T09:45:56.560Z,101191.87
2023-05-21T09:51:20.852Z,101190.76
2023-05-21T09:56:26.110Z,101189.41
2023-05-21T10:01:33.952Z,101179.00
2023-05-21T10:06:48.329Z,-1.00
2023-05-21T10:11:54.921Z,-1.00
2023-05-21T10:17:00.847Z,-1.00
2023-05-21T10:22:05.333Z,-1.00
2023-05-21T10:27:08.983Z,-1.00
2023-05-21T10:32:17.500Z,-1.00
2023-05-21T10:37:27.586Z,-1.00
2023-05-21T10:42:31.136Z,-1.00
2023-05-21T10:47:55.924Z,-1.00
2023-05-21T10:53:43.878Z,-1.00
2023-05-21T10:59:24.610Z,-1.00
2023-05-21T11:04:29.071Z,-1.00
2023-05-21T11:09:32.706Z,-1.00
2023-05-21T11:14:40.164Z,-1.00
2023-05-21T11:19:47.754Z,-1.00
2023-05-21T11:24:52.888Z,-1.00
2023-05-21T11:29:56.611Z,-1.00
2023-05-21T11:35:03.182Z,-1.00
2023-05-21T11:40:31.278Z,-1.00
2023-05-21T11:45:37.953Z,-1.00
2023-05-21T11:50:42.941Z,-1.00
2023-05-21T11:55:47.742Z,-1.00
2023-05-21T12:00:52.528Z,-1.00
2023-05-21T12:05:56.360Z,-1.00
2023-05-21T12:11:02.194Z,-1.00
2023-05-21T12:16:07.957Z,-1.00
2023-05-21T12:21:12.612Z,-1.00
2023-05-21T12:26:16.866Z,-1.00
2023-05-21T12:31:23.044Z,-1.00
2023-05-21T12:36:28.484Z,-1.00
2023-05-21T12:41:32.960Z,-1.00
2023-05-21T12:46:37.573Z,-1.00
2023-05-21T12:51:41.020Z,-1.00
2023-05-21T12:56:46.137Z,-1.00
2023-05-21T13:01:49.585Z,-1.00
2023-05-21T13:06:53.401Z,-1.00
2023-05-21T13:11:56.858Z,-1.00
2023-05-21T13:17:00.296Z,-1.00
2023-05-21T13:22:04.374Z,-1.00
2023-05-21T13:27:08.280Z,-1.00
2023-05-21T13:32:13.097Z,-1.00
2023-05-21T13:37:17.180Z,-1.00
2023-05-21T13:42:28.421Z,-1.00
2023-05-21T13:47:39.927Z,-1.00
2023-05-21T13:52:47.679Z,-1.00
2023-05-21T13:57:51.674Z,-1.00
2023-05-21T14:02:59.056Z,-1.00
2023-05-21T14:08:04.747Z,-1.00
2023-05-21T14:13:19.106Z,-1.00
2023-05-21T14:18:26.694Z,-1.00
2023-05-21T14:23:30.067Z,-1.00
2023-05-21T14:28:33.862Z,-1.00
2023-05-21T14:33:38.536Z,-1.00
2023-05-21T14:38:42.278Z,-1.00
2023-05-21T14:43:50.336Z,-1.00
2023-05-21T14:48:59.795Z,-1.00
2023-05-21T14:54:06.265Z,-1.00
2023-05-21T14:59:11.883Z,-1.00
2023-05-21T15:04:15.355Z,-1.00
2023-05-21T15:09:20.398Z,-1.00
2023-05-21T15:14:24.548Z,-1.00
2023-05-21T15:19:28.235Z,-1.00
2023-05-21T15:24:32.216Z,-1.00
2023-05-21T15:29:39.306Z,-1.00
2023-05-21T15:34:42.926Z,-1.00
2023-05-21T15:39:50.780Z,-1.00
2023-05-21T15:44:54.306Z,-1.00
2023-05-21T15:50:01.933Z,-1.00
2023-05-21T15:55:06.156Z,-1.00
2023-05-21T16:00:10.417Z,-1.00
2023-05-21T16:05:13.798Z,-1.00
2023-05-21T16:10:19.937Z,-1.00
2023-05-21T16:15:25.154Z,-1.00
2023-05-21T16:20:30.600Z,-1.00
2023-05-21T16:25:36.530Z,-1.00
2023-05-21T16:30:42.058Z,-1.00
2023-05-21T16:35:46.494Z,-1.00
2023-05-21T16:40:49.897Z,-1.00
2023-05-21T16:45:53.777Z,-1.00
2023-05-21T16:50:57.355Z,-1.00
2023-05-21T16:56:03.106Z,-1.00
2023-05-21T17:01:07.284Z,-1.00
2023-05-21T17:06:11.216Z,-1.00
2023-05-21T17:11:15.215Z,-1.00
2023-05-21T17:16:19.270Z,-1.00
2023-05-21T17:21:23.028Z,-1.00
2023-05-21T17:26:26.995Z,-1.00
2023-05-21T17:31:32.576Z,-1.00
2023-05-21T17:36:37.698Z,-1.00
2023-05-21T17:41:41.177Z,-1.00
2023-05-21T17:46:49.875Z,-1.00
2023-05-21T17:51:54.017Z,-1.00
2023-05-21T17:56:58.001Z,-1.00
2023-05-21T18:02:01.933Z,-1.00
2023-05-21T18:07:05.459Z,-1.00
2023-05-21T18:12:09.424Z,-1.00
2023-05-21T18:17:17.108Z,-1.00
2023-05-21T18:22:20.980Z,-1.00
2023-05-21T18:27:24.316Z,-1.00
2023-05-21T18:32:27.767Z,-1.00
2023-05-21T18:37:31.417Z,-1.00
2023-05-21T18:42:34.829Z,-1.00
2023-05-21T18:47:39.490Z,-1.00
2023-05-21T18:52:43.147Z,-1.00
2023-05-21T18:57:46.769Z,-1.00
2023-05-21T19:02:50.283Z,-1.00
2023-05-21T19:07:53.631Z,-1.00
2023-05-21T19:12:58.379Z,-1.00
2023-05-21T19:18:03.796Z,-1.00
2023-05-21T19:23:07.821Z,-1.00
2023-05-21T19:28:11.206Z,-1.00
2023-05-21T19:33:14.727Z,-1.00
2023-05-21T19:38:19.346Z,-1.00
2023-05-21T19:43:22.818Z,-1.00
2023-05-21T19:48:26.889Z,-1.00
2023-05-21T19:53:30.202Z,-1.00
2023-05-21T19:58:34.590Z,-1.00
2023-05-21T20:03:38.116Z,-1.00
2023-05-21T20:08:42.456Z,-1.00
2023-05-21T20:13:50.536Z,-1.00
2023-05-21T20:19:02.641Z,-1.00
2023-05-21T20:24:07.172Z,-1.00
2023-05-21T20:29:12.058Z,-1.00
2023-05-21T20:34:18.135Z,-1.00
2023-05-21T20:39:23.352Z,-1.00
2023-05-21T20:44:27.805Z,-1.00
2023-05-21T20:49:33.576Z,-1.00
2023-05-21T20:54:37.064Z,-1.00
2023-05-21T20:59:40.395Z,-1.00
2023-05-21T21:04:43.913Z,-1.00
2023-05-21T21:09:49.642Z,-1.00
2023-05-21T21:14:52.929Z,-1.00
2023-05-21T21:19:56.251Z,-1.00
2023-05-21T21:25:00.290Z,-1.00
2023-05-21T21:30:05.100Z,-1.00
2023-05-21T21:35:10.298Z,-1.00
2023-05-21T21:40:14.440Z,-1.00
2023-05-21T21:45:17.936Z,-1.00
2023-05-21T21:50:21.434Z,-1.00
2023-05-21T21:55:24.705Z,-1.00
2023-05-21T22:00:29.431Z,-1.00
2023-05-21T22:05:33.070Z,-1.00
2023-05-21T22:10:38.692Z,-1.00
2023-05-21T22:15:42.865Z,-1.00
2023-05-21T22:20:48.964Z,-1.00
2023-05-21T22:25:52.401Z,-1.00
2023-05-21T22:30:56.486Z,-1.00
2023-05-21T22:35:59.953Z,-1.00
2023-05-21T22:41:04.088Z,-1.00
2023-05-21T22:46:07.593Z,-1.00
2023-05-21T22:51:11.618Z,-1.00
2023-05-21T22:56:14.921Z,-1.00
2023-05-21T23:01:18.386Z,-1.00
2023-05-21T23:06:21.803Z,-1.00
2023-05-21T23:11:25.270Z,-1.00
2023-05-21T23:16:31.054Z,-1.00
2023-05-21T23:21:34.690Z,-1.00
2023-05-21T23:26:38.195Z,-1.00
2023-05-21T23:31:42.421Z,-1.00
2023-05-21T23:36:45.946Z,-1.00
2023-05-21T23:41:49.432Z,-1.00
2023-05-21T23:46:52.809Z,-1.00
2023-05-21T23:51:56.722Z,-1.00
2023-05-21T23:57:00.122Z,-1.00
